sensor_id;sensor_type;location;lat;lon;timestamp;P1;durP1;ratioP1;P2;durP2;ratioP2
77513;SDS011;66626;48.872;9.084;2023-03-30T00:02:17;6.93;;;1.92;;
77513;SDS011;66626;48.872;9.084;2023-03-30T00:04:46;12.93;;;1.90;;
77513;SDS011;66626;48.872;9.084;2023-03-30T00:07:11;6.18;;;2.22;;
77513;SDS011;66626;48.872;9.084;2023-03-30T00:09:37;8.48;;;1.90;;
77513;SDS011;66626;48.872;9.084;2023-03-30T00:12:08;6.30;;;1.90;;
77513;SDS011;66626;48.872;9.084;2023-03-30T00:14:41;6.15;;;1.67;;
77513;SDS011;66626;48.872;9.084;2023-03-30T00:17:09;9.65;;;2.15;;
77513;SDS011;66626;48.872;9.084;2023-03-30T00:19:35;9.25;;;1.98;;
77513;SDS011;66626;48.872;9.084;2023-03-30T00:22:03;4.20;;;1.48;;
77513;SDS011;66626;48.872;9.084;2023-03-30T00:24:29;4.63;;;1.90;;
77513;SDS011;66626;48.872;9.084;2023-03-30T00:26:55;9.27;;;2.25;;
77513;SDS011;66626;48.872;9.084;2023-03-30T00:29:20;7.28;;;1.70;;
77513;SDS011;66626;48.872;9.084;2023-03-30T00:31:45;6.38;;;1.73;;
77513;SDS011;66626;48.872;9.084;2023-03-30T00:34:11;6.93;;;1.60;;
77513;SDS011;66626;48.872;9.084;2023-03-30T00:36:36;9.00;;;1.90;;
77513;SDS011;66626;48.872;9.084;2023-03-30T00:39:02;10.63;;;2.05;;
77513;SDS011;66626;48.872;9.084;2023-03-30T00:41:30;7.45;;;1.85;;
77513;SDS011;66626;48.872;9.084;2023-03-30T00:44:00;6.85;;;1.75;;
77513;SDS011;66626;48.872;9.084;2023-03-30T00:46:27;13.43;;;2.10;;
77513;SDS011;66626;48.872;9.084;2023-03-30T00:48:55;8.80;;;1.80;;
77513;SDS011;66626;48.872;9.084;2023-03-30T00:51:24;10.45;;;2.63;;
77513;SDS011;66626;48.872;9.084;2023-03-30T00:53:51;8.88;;;1.73;;
77513;SDS011;66626;48.872;9.084;2023-03-30T00:56:20;5.45;;;1.60;;
77513;SDS011;66626;48.872;9.084;2023-03-30T00:58:47;9.35;;;2.30;;
77513;SDS011;66626;48.872;9.084;2023-03-30T01:01:14;7.65;;;2.35;;
77513;SDS011;66626;48.872;9.084;2023-03-30T01:03:43;8.73;;;1.70;;
77513;SDS011;66626;48.872;9.084;2023-03-30T01:06:10;11.70;;;1.92;;
77513;SDS011;66626;48.872;9.084;2023-03-30T01:08:35;7.53;;;1.50;;
77513;SDS011;66626;48.872;9.084;2023-03-30T01:11:01;10.30;;;1.75;;
77513;SDS011;66626;48.872;9.084;2023-03-30T01:13:27;7.20;;;2.30;;
77513;SDS011;66626;48.872;9.084;2023-03-30T01:15:57;8.13;;;2.42;;
77513;SDS011;66626;48.872;9.084;2023-03-30T01:18:41;9.35;;;2.08;;
77513;SDS011;66626;48.872;9.084;2023-03-30T01:35:17;14.45;;;1.98;;
77513;SDS011;66626;48.872;9.084;2023-03-30T01:40:49;9.57;;;2.10;;
77513;SDS011;66626;48.872;9.084;2023-03-30T01:43:24;8.32;;;1.58;;
77513;SDS011;66626;48.872;9.084;2023-03-30T01:46:00;11.82;;;2.20;;
77513;SDS011;66626;48.872;9.084;2023-03-30T01:48:33;9.57;;;2.50;;
77513;SDS011;66626;48.872;9.084;2023-03-30T01:51:09;7.68;;;2.05;;
77513;SDS011;66626;48.872;9.084;2023-03-30T01:56:23;10.57;;;1.60;;
77513;SDS011;66626;48.872;9.084;2023-03-30T01:58:52;15.27;;;2.38;;
77513;SDS011;66626;48.872;9.084;2023-03-30T02:01:20;11.88;;;2.28;;
77513;SDS011;66626;48.872;9.084;2023-03-30T02:03:48;11.48;;;2.05;;
77513;SDS011;66626;48.872;9.084;2023-03-30T02:06:19;8.30;;;2.13;;
77513;SDS011;66626;48.872;9.084;2023-03-30T02:08:48;11.50;;;2.13;;
77513;SDS011;66626;48.872;9.084;2023-03-30T02:11:14;5.55;;;1.73;;
77513;SDS011;66626;48.872;9.084;2023-03-30T02:13:39;10.38;;;1.58;;
77513;SDS011;66626;48.872;9.084;2023-03-30T02:16:11;8.45;;;2.20;;
77513;SDS011;66626;48.872;9.084;2023-03-30T02:18:39;11.02;;;2.22;;
77513;SDS011;66626;48.872;9.084;2023-03-30T02:21:04;11.40;;;2.20;;
77513;SDS011;66626;48.872;9.084;2023-03-30T02:23:31;17.08;;;1.90;;
77513;SDS011;66626;48.872;9.084;2023-03-30T02:26:02;9.40;;;2.35;;
77513;SDS011;66626;48.872;9.084;2023-03-30T02:28:28;11.23;;;2.30;;
77513;SDS011;66626;48.872;9.084;2023-03-30T02:30:53;11.48;;;2.08;;
77513;SDS011;66626;48.872;9.084;2023-03-30T02:35:59;8.88;;;3.03;;
77513;SDS011;66626;48.872;9.084;2023-03-30T02:38:36;8.00;;;2.10;;
77513;SDS011;66626;48.872;9.084;2023-03-30T02:41:15;10.02;;;2.55;;
77513;SDS011;66626;48.872;9.084;2023-03-30T02:43:57;6.07;;;1.80;;
77513;SDS011;66626;48.872;9.084;2023-03-30T02:49:49;8.77;;;2.15;;
77513;SDS011;66626;48.872;9.084;2023-03-30T03:02:55;11.75;;;2.42;;
77513;SDS011;66626;48.872;9.084;2023-03-30T03:05:23;15.25;;;2.30;;
77513;SDS011;66626;48.872;9.084;2023-03-30T03:07:50;9.15;;;2.00;;
77513;SDS011;66626;48.872;9.084;2023-03-30T03:10:16;9.77;;;2.28;;
77513;SDS011;66626;48.872;9.084;2023-03-30T03:12:41;11.93;;;2.33;;
77513;SDS011;66626;48.872;9.084;2023-03-30T03:15:08;11.30;;;2.38;;
77513;SDS011;66626;48.872;9.084;2023-03-30T03:17:35;11.90;;;2.10;;
77513;SDS011;66626;48.872;9.084;2023-03-30T03:20:00;9.00;;;1.98;;
77513;SDS011;66626;48.872;9.084;2023-03-30T03:22:27;11.27;;;2.70;;
77513;SDS011;66626;48.872;9.084;2023-03-30T03:24:53;14.45;;;2.42;;
77513;SDS011;66626;48.872;9.084;2023-03-30T03:27:19;20.23;;;3.22;;
77513;SDS011;66626;48.872;9.084;2023-03-30T03:29:45;14.25;;;2.88;;
77513;SDS011;66626;48.872;9.084;2023-03-30T03:32:11;16.75;;;2.30;;
77513;SDS011;66626;48.872;9.084;2023-03-30T03:34:36;10.55;;;3.08;;
77513;SDS011;66626;48.872;9.084;2023-03-30T03:37:03;9.30;;;3.47;;
77513;SDS011;66626;48.872;9.084;2023-03-30T03:39:29;8.18;;;2.10;;
77513;SDS011;66626;48.872;9.084;2023-03-30T03:41:55;13.88;;;2.80;;
77513;SDS011;66626;48.872;9.084;2023-03-30T03:44:21;6.97;;;2.30;;
77513;SDS011;66626;48.872;9.084;2023-03-30T03:46:46;10.63;;;2.65;;
77513;SDS011;66626;48.872;9.084;2023-03-30T03:49:12;11.73;;;2.95;;
77513;SDS011;66626;48.872;9.084;2023-03-30T03:51:37;10.32;;;3.03;;
77513;SDS011;66626;48.872;9.084;2023-03-30T03:54:02;8.55;;;1.80;;
77513;SDS011;66626;48.872;9.084;2023-03-30T03:56:28;8.38;;;2.83;;
77513;SDS011;66626;48.872;9.084;2023-03-30T03:58:53;9.68;;;2.25;;
77513;SDS011;66626;48.872;9.084;2023-03-30T04:01:18;7.47;;;3.13;;
77513;SDS011;66626;48.872;9.084;2023-03-30T04:03:44;10.02;;;3.15;;
77513;SDS011;66626;48.872;9.084;2023-03-30T04:06:09;9.60;;;2.60;;
77513;SDS011;66626;48.872;9.084;2023-03-30T04:08:35;10.73;;;2.92;;
77513;SDS011;66626;48.872;9.084;2023-03-30T04:11:10;8.98;;;2.28;;
77513;SDS011;66626;48.872;9.084;2023-03-30T04:13:36;10.52;;;2.47;;
77513;SDS011;66626;48.872;9.084;2023-03-30T04:16:02;11.48;;;2.40;;
77513;SDS011;66626;48.872;9.084;2023-03-30T04:18:28;9.35;;;2.90;;
77513;SDS011;66626;48.872;9.084;2023-03-30T04:20:57;14.98;;;2.40;;
77513;SDS011;66626;48.872;9.084;2023-03-30T04:23:34;12.23;;;2.35;;
77513;SDS011;66626;48.872;9.084;2023-03-30T04:26:00;9.75;;;2.55;;
77513;SDS011;66626;48.872;9.084;2023-03-30T04:28:30;13.00;;;2.40;;
77513;SDS011;66626;48.872;9.084;2023-03-30T04:33:35;6.00;;;2.00;;
77513;SDS011;66626;48.872;9.084;2023-03-30T04:36:02;11.38;;;2.70;;
77513;SDS011;66626;48.872;9.084;2023-03-30T04:38:27;11.95;;;2.67;;
77513;SDS011;66626;48.872;9.084;2023-03-30T04:40:54;10.30;;;2.35;;
77513;SDS011;66626;48.872;9.084;2023-03-30T04:43:20;11.32;;;3.30;;
77513;SDS011;66626;48.872;9.084;2023-03-30T04:45:47;13.38;;;2.47;;
77513;SDS011;66626;48.872;9.084;2023-03-30T04:48:13;14.20;;;2.58;;
77513;SDS011;66626;48.872;9.084;2023-03-30T04:50:38;5.22;;;1.98;;
77513;SDS011;66626;48.872;9.084;2023-03-30T04:53:05;10.73;;;2.60;;
77513;SDS011;66626;48.872;9.084;2023-03-30T04:55:30;12.45;;;2.75;;
77513;SDS011;66626;48.872;9.084;2023-03-30T04:57:55;7.80;;;2.10;;
77513;SDS011;66626;48.872;9.084;2023-03-30T05:00:21;15.52;;;3.47;;
77513;SDS011;66626;48.872;9.084;2023-03-30T05:02:46;11.98;;;2.55;;
77513;SDS011;66626;48.872;9.084;2023-03-30T05:05:11;9.95;;;2.50;;
77513;SDS011;66626;48.872;9.084;2023-03-30T05:07:37;9.40;;;2.72;;
77513;SDS011;66626;48.872;9.084;2023-03-30T05:10:02;9.60;;;2.60;;
77513;SDS011;66626;48.872;9.084;2023-03-30T05:12:28;10.18;;;2.33;;
77513;SDS011;66626;48.872;9.084;2023-03-30T05:14:53;9.45;;;2.33;;
77513;SDS011;66626;48.872;9.084;2023-03-30T05:17:18;12.95;;;2.80;;
77513;SDS011;66626;48.872;9.084;2023-03-30T05:19:43;12.70;;;2.75;;
77513;SDS011;66626;48.872;9.084;2023-03-30T05:22:10;8.70;;;2.67;;
77513;SDS011;66626;48.872;9.084;2023-03-30T05:24:35;10.20;;;2.35;;
77513;SDS011;66626;48.872;9.084;2023-03-30T05:27:01;10.73;;;2.75;;
77513;SDS011;66626;48.872;9.084;2023-03-30T05:29:26;8.13;;;2.40;;
77513;SDS011;66626;48.872;9.084;2023-03-30T05:31:52;9.95;;;2.85;;
77513;SDS011;66626;48.872;9.084;2023-03-30T05:34:17;11.07;;;3.08;;
77513;SDS011;66626;48.872;9.084;2023-03-30T05:36:42;10.95;;;2.70;;
77513;SDS011;66626;48.872;9.084;2023-03-30T05:39:08;9.63;;;2.25;;
77513;SDS011;66626;48.872;9.084;2023-03-30T05:41:33;14.85;;;2.80;;
77513;SDS011;66626;48.872;9.084;2023-03-30T05:43:58;12.73;;;2.97;;
77513;SDS011;66626;48.872;9.084;2023-03-30T05:46:24;9.90;;;2.15;;
77513;SDS011;66626;48.872;9.084;2023-03-30T05:48:49;10.50;;;3.50;;
77513;SDS011;66626;48.872;9.084;2023-03-30T05:51:15;11.77;;;2.22;;
77513;SDS011;66626;48.872;9.084;2023-03-30T05:53:40;8.48;;;2.33;;
77513;SDS011;66626;48.872;9.084;2023-03-30T05:56:05;11.32;;;2.40;;
77513;SDS011;66626;48.872;9.084;2023-03-30T05:58:32;16.30;;;2.85;;
77513;SDS011;66626;48.872;9.084;2023-03-30T06:00:57;9.40;;;1.95;;
77513;SDS011;66626;48.872;9.084;2023-03-30T06:03:23;15.60;;;2.35;;
77513;SDS011;66626;48.872;9.084;2023-03-30T06:05:48;9.18;;;2.47;;
77513;SDS011;66626;48.872;9.084;2023-03-30T06:08:13;12.40;;;2.58;;
77513;SDS011;66626;48.872;9.084;2023-03-30T06:10:39;18.67;;;2.88;;
77513;SDS011;66626;48.872;9.084;2023-03-30T06:13:04;13.20;;;3.25;;
77513;SDS011;66626;48.872;9.084;2023-03-30T06:15:30;6.40;;;2.10;;
77513;SDS011;66626;48.872;9.084;2023-03-30T06:17:56;11.82;;;2.92;;
77513;SDS011;66626;48.872;9.084;2023-03-30T06:20:23;11.23;;;2.60;;
77513;SDS011;66626;48.872;9.084;2023-03-30T06:22:50;11.75;;;3.15;;
77513;SDS011;66626;48.872;9.084;2023-03-30T06:25:19;10.27;;;2.08;;
77513;SDS011;66626;48.872;9.084;2023-03-30T06:27:45;9.15;;;2.40;;
77513;SDS011;66626;48.872;9.084;2023-03-30T06:30:11;11.98;;;2.60;;
77513;SDS011;66626;48.872;9.084;2023-03-30T06:32:37;7.22;;;2.28;;
77513;SDS011;66626;48.872;9.084;2023-03-30T06:35:03;14.18;;;1.95;;
77513;SDS011;66626;48.872;9.084;2023-03-30T06:37:32;11.88;;;2.78;;
77513;SDS011;66626;48.872;9.084;2023-03-30T06:40:00;14.25;;;2.60;;
77513;SDS011;66626;48.872;9.084;2023-03-30T06:42:25;12.10;;;3.47;;
77513;SDS011;66626;48.872;9.084;2023-03-30T06:44:51;8.40;;;2.35;;
77513;SDS011;66626;48.872;9.084;2023-03-30T06:47:17;12.80;;;2.33;;
77513;SDS011;66626;48.872;9.084;2023-03-30T06:49:43;13.35;;;3.05;;
77513;SDS011;66626;48.872;9.084;2023-03-30T06:52:08;13.23;;;3.00;;
77513;SDS011;66626;48.872;9.084;2023-03-30T06:54:35;11.35;;;3.33;;
77513;SDS011;66626;48.872;9.084;2023-03-30T06:57:00;11.38;;;2.47;;
77513;SDS011;66626;48.872;9.084;2023-03-30T06:59:26;14.70;;;3.45;;
77513;SDS011;66626;48.872;9.084;2023-03-30T07:01:51;14.98;;;3.08;;
77513;SDS011;66626;48.872;9.084;2023-03-30T07:04:17;12.52;;;2.95;;
77513;SDS011;66626;48.872;9.084;2023-03-30T07:06:42;14.43;;;3.30;;
77513;SDS011;66626;48.872;9.084;2023-03-30T07:09:07;13.98;;;3.60;;
77513;SDS011;66626;48.872;9.084;2023-03-30T07:11:33;16.30;;;2.95;;
77513;SDS011;66626;48.872;9.084;2023-03-30T07:13:58;11.63;;;2.85;;
77513;SDS011;66626;48.872;9.084;2023-03-30T07:16:25;13.05;;;3.60;;
77513;SDS011;66626;48.872;9.084;2023-03-30T07:18:50;12.40;;;3.25;;
77513;SDS011;66626;48.872;9.084;2023-03-30T07:21:16;9.68;;;3.20;;
77513;SDS011;66626;48.872;9.084;2023-03-30T07:23:42;10.77;;;3.45;;
77513;SDS011;66626;48.872;9.084;2023-03-30T07:26:07;12.07;;;3.15;;
77513;SDS011;66626;48.872;9.084;2023-03-30T07:28:33;12.13;;;3.83;;
77513;SDS011;66626;48.872;9.084;2023-03-30T07:31:05;12.65;;;3.20;;
77513;SDS011;66626;48.872;9.084;2023-03-30T07:33:32;11.95;;;2.92;;
77513;SDS011;66626;48.872;9.084;2023-03-30T07:35:57;12.60;;;2.85;;
77513;SDS011;66626;48.872;9.084;2023-03-30T07:38:22;12.73;;;2.63;;
77513;SDS011;66626;48.872;9.084;2023-03-30T07:40:48;13.63;;;3.05;;
77513;SDS011;66626;48.872;9.084;2023-03-30T07:43:13;8.20;;;3.35;;
77513;SDS011;66626;48.872;9.084;2023-03-30T07:45:38;11.63;;;3.15;;
77513;SDS011;66626;48.872;9.084;2023-03-30T07:48:04;7.55;;;4.13;;
77513;SDS011;66626;48.872;9.084;2023-03-30T07:50:29;12.23;;;2.88;;
77513;SDS011;66626;48.872;9.084;2023-03-30T07:52:55;12.85;;;3.08;;
77513;SDS011;66626;48.872;9.084;2023-03-30T07:55:20;5.78;;;2.33;;
77513;SDS011;66626;48.872;9.084;2023-03-30T07:57:45;12.18;;;3.03;;
77513;SDS011;66626;48.872;9.084;2023-03-30T08:00:11;7.35;;;2.35;;
77513;SDS011;66626;48.872;9.084;2023-03-30T08:02:38;10.13;;;2.72;;
77513;SDS011;66626;48.872;9.084;2023-03-30T08:05:04;8.32;;;2.53;;
77513;SDS011;66626;48.872;9.084;2023-03-30T08:07:30;14.93;;;2.67;;
77513;SDS011;66626;48.872;9.084;2023-03-30T08:09:56;10.25;;;3.10;;
77513;SDS011;66626;48.872;9.084;2023-03-30T08:12:21;14.57;;;3.83;;
77513;SDS011;66626;48.872;9.084;2023-03-30T08:14:46;7.72;;;2.97;;
77513;SDS011;66626;48.872;9.084;2023-03-30T08:17:12;7.82;;;2.72;;
77513;SDS011;66626;48.872;9.084;2023-03-30T08:19:37;8.27;;;2.38;;
77513;SDS011;66626;48.872;9.084;2023-03-30T08:22:02;7.82;;;2.42;;
77513;SDS011;66626;48.872;9.084;2023-03-30T08:24:28;8.45;;;2.85;;
77513;SDS011;66626;48.872;9.084;2023-03-30T08:26:54;8.10;;;2.65;;
77513;SDS011;66626;48.872;9.084;2023-03-30T08:29:19;7.20;;;3.10;;
77513;SDS011;66626;48.872;9.084;2023-03-30T08:31:45;7.30;;;2.25;;
77513;SDS011;66626;48.872;9.084;2023-03-30T08:34:10;9.63;;;2.58;;
77513;SDS011;66626;48.872;9.084;2023-03-30T08:36:36;7.03;;;2.08;;
77513;SDS011;66626;48.872;9.084;2023-03-30T08:39:01;6.78;;;2.42;;
77513;SDS011;66626;48.872;9.084;2023-03-30T08:46:22;3.50;;;1.63;;
77513;SDS011;66626;48.872;9.084;2023-03-30T08:48:48;7.53;;;1.95;;
77513;SDS011;66626;48.872;9.084;2023-03-30T08:53:46;7.60;;;1.75;;
77513;SDS011;66626;48.872;9.084;2023-03-30T08:56:22;6.00;;;1.63;;
77513;SDS011;66626;48.872;9.084;2023-03-30T09:06:54;6.85;;;2.88;;
77513;SDS011;66626;48.872;9.084;2023-03-30T09:09:24;13.63;;;2.90;;
77513;SDS011;66626;48.872;9.084;2023-03-30T09:12:01;6.07;;;2.50;;
77513;SDS011;66626;48.872;9.084;2023-03-30T09:14:41;6.85;;;2.50;;
77513;SDS011;66626;48.872;9.084;2023-03-30T09:17:12;5.38;;;2.17;;
77513;SDS011;66626;48.872;9.084;2023-03-30T09:20:22;6.57;;;2.35;;
77513;SDS011;66626;48.872;9.084;2023-03-30T09:22:43;8.02;;;2.15;;
77513;SDS011;66626;48.872;9.084;2023-03-30T09:25:19;8.25;;;1.77;;
77513;SDS011;66626;48.872;9.084;2023-03-30T09:27:55;5.35;;;1.80;;
77513;SDS011;66626;48.872;9.084;2023-03-30T09:30:29;5.15;;;1.73;;
77513;SDS011;66626;48.872;9.084;2023-03-30T09:32:59;5.90;;;1.70;;
77513;SDS011;66626;48.872;9.084;2023-03-30T09:35:36;3.78;;;1.40;;
77513;SDS011;66626;48.872;9.084;2023-03-30T09:38:07;4.40;;;1.52;;
77513;SDS011;66626;48.872;9.084;2023-03-30T09:46:08;5.32;;;2.13;;
77513;SDS011;66626;48.872;9.084;2023-03-30T09:48:39;10.68;;;2.17;;
77513;SDS011;66626;48.872;9.084;2023-03-30T09:51:12;4.93;;;1.80;;
77513;SDS011;66626;48.872;9.084;2023-03-30T09:53:40;3.45;;;1.65;;
77513;SDS011;66626;48.872;9.084;2023-03-30T09:56:07;4.38;;;1.50;;
77513;SDS011;66626;48.872;9.084;2023-03-30T09:58:35;5.05;;;1.52;;
77513;SDS011;66626;48.872;9.084;2023-03-30T10:01:08;5.70;;;1.75;;
77513;SDS011;66626;48.872;9.084;2023-03-30T10:03:36;3.83;;;1.40;;
77513;SDS011;66626;48.872;9.084;2023-03-30T10:11:19;6.07;;;1.83;;
77513;SDS011;66626;48.872;9.084;2023-03-30T10:13:47;6.13;;;2.00;;
77513;SDS011;66626;48.872;9.084;2023-03-30T10:16:21;8.38;;;2.10;;
77513;SDS011;66626;48.872;9.084;2023-03-30T10:18:51;5.22;;;2.15;;
77513;SDS011;66626;48.872;9.084;2023-03-30T10:21:18;4.45;;;1.67;;
77513;SDS011;66626;48.872;9.084;2023-03-30T10:23:46;4.60;;;1.90;;
77513;SDS011;66626;48.872;9.084;2023-03-30T10:26:28;4.32;;;1.90;;
77513;SDS011;66626;48.872;9.084;2023-03-30T10:29:04;4.45;;;1.85;;
77513;SDS011;66626;48.872;9.084;2023-03-30T10:31:35;4.95;;;1.65;;
77513;SDS011;66626;48.872;9.084;2023-03-30T10:34:01;5.68;;;1.90;;
77513;SDS011;66626;48.872;9.084;2023-03-30T10:36:36;4.93;;;2.67;;
77513;SDS011;66626;48.872;9.084;2023-03-30T10:39:07;5.75;;;1.95;;
77513;SDS011;66626;48.872;9.084;2023-03-30T10:41:36;5.20;;;1.67;;
77513;SDS011;66626;48.872;9.084;2023-03-30T10:44:16;4.65;;;2.00;;
77513;SDS011;66626;48.872;9.084;2023-03-30T10:46:46;5.65;;;1.92;;
77513;SDS011;66626;48.872;9.084;2023-03-30T10:49:20;5.22;;;2.20;;
77513;SDS011;66626;48.872;9.084;2023-03-30T10:54:41;6.65;;;1.73;;
77513;SDS011;66626;48.872;9.084;2023-03-30T10:57:18;6.25;;;2.08;;
77513;SDS011;66626;48.872;9.084;2023-03-30T11:05:12;6.22;;;2.10;;
77513;SDS011;66626;48.872;9.084;2023-03-30T11:07:42;3.85;;;1.67;;
77513;SDS011;66626;48.872;9.084;2023-03-30T11:10:23;4.90;;;2.00;;
77513;SDS011;66626;48.872;9.084;2023-03-30T11:13:02;6.20;;;2.15;;
77513;SDS011;66626;48.872;9.084;2023-03-30T11:15:43;4.53;;;2.22;;
77513;SDS011;66626;48.872;9.084;2023-03-30T11:18:23;5.45;;;1.90;;
77513;SDS011;66626;48.872;9.084;2023-03-30T11:20:59;5.13;;;2.00;;
77513;SDS011;66626;48.872;9.084;2023-03-30T11:25:59;4.25;;;1.60;;
77513;SDS011;66626;48.872;9.084;2023-03-30T11:31:02;4.40;;;1.80;;
77513;SDS011;66626;48.872;9.084;2023-03-30T11:33:38;4.28;;;1.85;;
77513;SDS011;66626;48.872;9.084;2023-03-30T11:36:13;5.15;;;1.60;;
77513;SDS011;66626;48.872;9.084;2023-03-30T11:38:59;4.95;;;1.60;;
77513;SDS011;66626;48.872;9.084;2023-03-30T11:41:37;5.57;;;1.60;;
77513;SDS011;66626;48.872;9.084;2023-03-30T11:44:07;7.90;;;2.00;;
77513;SDS011;66626;48.872;9.084;2023-03-30T11:49:45;10.27;;;2.10;;
77513;SDS011;66626;48.872;9.084;2023-03-30T11:52:24;9.05;;;2.20;;
77513;SDS011;66626;48.872;9.084;2023-03-30T11:57:46;3.45;;;1.60;;
77513;SDS011;66626;48.872;9.084;2023-03-30T12:00:27;8.57;;;2.25;;
77513;SDS011;66626;48.872;9.084;2023-03-30T12:03:13;4.00;;;1.77;;
77513;SDS011;66626;48.872;9.084;2023-03-30T12:05:46;4.10;;;1.83;;
77513;SDS011;66626;48.872;9.084;2023-03-30T12:08:22;4.93;;;1.85;;
77513;SDS011;66626;48.872;9.084;2023-03-30T12:10:53;6.55;;;1.98;;
77513;SDS011;66626;48.872;9.084;2023-03-30T12:13:24;6.82;;;1.75;;
77513;SDS011;66626;48.872;9.084;2023-03-30T12:15:54;4.53;;;2.13;;
77513;SDS011;66626;48.872;9.084;2023-03-30T12:18:38;4.78;;;1.65;;
77513;SDS011;66626;48.872;9.084;2023-03-30T12:21:27;5.75;;;2.13;;
77513;SDS011;66626;48.872;9.084;2023-03-30T12:24:07;6.10;;;2.00;;
77513;SDS011;66626;48.872;9.084;2023-03-30T12:26:37;6.68;;;1.65;;
77513;SDS011;66626;48.872;9.084;2023-03-30T12:34:13;5.57;;;2.10;;
77513;SDS011;66626;48.872;9.084;2023-03-30T12:36:39;9.65;;;2.10;;
77513;SDS011;66626;48.872;9.084;2023-03-30T12:39:53;6.15;;;2.05;;
77513;SDS011;66626;48.872;9.084;2023-03-30T12:42:07;5.07;;;1.70;;
77513;SDS011;66626;48.872;9.084;2023-03-30T12:50:49;6.03;;;1.95;;
77513;SDS011;66626;48.872;9.084;2023-03-30T13:01:39;4.93;;;1.52;;
77513;SDS011;66626;48.872;9.084;2023-03-30T13:04:32;7.22;;;1.83;;
77513;SDS011;66626;48.872;9.084;2023-03-30T13:06:58;7.55;;;1.83;;
77513;SDS011;66626;48.872;9.084;2023-03-30T13:21:47;8.52;;;2.35;;
77513;SDS011;66626;48.872;9.084;2023-03-30T13:24:25;5.85;;;1.63;;
77513;SDS011;66626;48.872;9.084;2023-03-30T13:27:09;3.67;;;1.70;;
77513;SDS011;66626;48.872;9.084;2023-03-30T13:29:37;9.85;;;1.83;;
77513;SDS011;66626;48.872;9.084;2023-03-30T13:32:06;4.32;;;1.40;;
77513;SDS011;66626;48.872;9.084;2023-03-30T13:37:21;7.10;;;2.33;;
77513;SDS011;66626;48.872;9.084;2023-03-30T13:40:02;4.20;;;1.27;;
77513;SDS011;66626;48.872;9.084;2023-03-30T13:45:17;3.20;;;1.23;;
77513;SDS011;66626;48.872;9.084;2023-03-30T13:48:07;6.13;;;1.98;;
77513;SDS011;66626;48.872;9.084;2023-03-30T13:50:43;7.20;;;1.80;;
77513;SDS011;66626;48.872;9.084;2023-03-30T13:53:12;5.38;;;1.60;;
77513;SDS011;66626;48.872;9.084;2023-03-30T13:55:43;6.07;;;1.60;;
77513;SDS011;66626;48.872;9.084;2023-03-30T13:58:20;5.43;;;1.40;;
77513;SDS011;66626;48.872;9.084;2023-03-30T14:00:48;5.80;;;1.70;;
77513;SDS011;66626;48.872;9.084;2023-03-30T14:03:25;8.45;;;1.70;;
77513;SDS011;66626;48.872;9.084;2023-03-30T14:06:01;4.15;;;1.33;;
77513;SDS011;66626;48.872;9.084;2023-03-30T14:08:32;6.18;;;2.15;;
77513;SDS011;66626;48.872;9.084;2023-03-30T14:11:01;4.75;;;1.75;;
77513;SDS011;66626;48.872;9.084;2023-03-30T14:13:28;4.97;;;2.00;;
77513;SDS011;66626;48.872;9.084;2023-03-30T14:15:53;4.18;;;1.70;;
77513;SDS011;66626;48.872;9.084;2023-03-30T14:18:20;5.50;;;2.30;;
77513;SDS011;66626;48.872;9.084;2023-03-30T14:21:07;9.32;;;1.73;;
77513;SDS011;66626;48.872;9.084;2023-03-30T14:23:36;6.00;;;1.60;;
77513;SDS011;66626;48.872;9.084;2023-03-30T14:26:25;5.57;;;1.60;;
77513;SDS011;66626;48.872;9.084;2023-03-30T14:28:53;8.88;;;1.60;;
77513;SDS011;66626;48.872;9.084;2023-03-30T14:31:20;5.95;;;1.60;;
77513;SDS011;66626;48.872;9.084;2023-03-30T14:33:46;6.38;;;1.67;;
77513;SDS011;66626;48.872;9.084;2023-03-30T14:36:13;5.40;;;1.40;;
77513;SDS011;66626;48.872;9.084;2023-03-30T14:38:40;6.55;;;1.60;;
77513;SDS011;66626;48.872;9.084;2023-03-30T14:41:12;7.45;;;2.78;;
77513;SDS011;66626;48.872;9.084;2023-03-30T14:43:41;4.47;;;1.42;;
77513;SDS011;66626;48.872;9.084;2023-03-30T14:46:16;7.63;;;1.65;;
77513;SDS011;66626;48.872;9.084;2023-03-30T14:48:42;5.82;;;1.50;;
77513;SDS011;66626;48.872;9.084;2023-03-30T14:51:22;4.18;;;1.50;;
77513;SDS011;66626;48.872;9.084;2023-03-30T14:53:52;5.07;;;1.75;;
77513;SDS011;66626;48.872;9.084;2023-03-30T14:56:18;5.07;;;1.60;;
77513;SDS011;66626;48.872;9.084;2023-03-30T14:58:45;4.97;;;1.92;;
77513;SDS011;66626;48.872;9.084;2023-03-30T15:01:13;4.40;;;1.10;;
77513;SDS011;66626;48.872;9.084;2023-03-30T15:03:40;5.32;;;1.67;;
77513;SDS011;66626;48.872;9.084;2023-03-30T15:06:07;3.15;;;1.42;;
77513;SDS011;66626;48.872;9.084;2023-03-30T15:08:37;4.72;;;1.30;;
77513;SDS011;66626;48.872;9.084;2023-03-30T15:11:07;3.58;;;1.02;;
77513;SDS011;66626;48.872;9.084;2023-03-30T15:13:40;5.22;;;1.13;;
77513;SDS011;66626;48.872;9.084;2023-03-30T15:16:17;5.57;;;1.30;;
77513;SDS011;66626;48.872;9.084;2023-03-30T15:18:44;5.95;;;1.42;;
77513;SDS011;66626;48.872;9.084;2023-03-30T15:21:10;5.80;;;1.52;;
77513;SDS011;66626;48.872;9.084;2023-03-30T15:23:37;3.58;;;1.00;;
77513;SDS011;66626;48.872;9.084;2023-03-30T15:26:05;3.80;;;1.10;;
77513;SDS011;66626;48.872;9.084;2023-03-30T15:28:31;7.07;;;1.65;;
77513;SDS011;66626;48.872;9.084;2023-03-30T15:30:59;5.90;;;2.08;;
77513;SDS011;66626;48.872;9.084;2023-03-30T15:35:55;4.35;;;1.30;;
77513;SDS011;66626;48.872;9.084;2023-03-30T15:38:27;4.70;;;1.20;;
77513;SDS011;66626;48.872;9.084;2023-03-30T15:41:00;3.25;;;1.13;;
77513;SDS011;66626;48.872;9.084;2023-03-30T15:43:26;5.00;;;0.90;;
77513;SDS011;66626;48.872;9.084;2023-03-30T15:45:55;5.38;;;1.10;;
77513;SDS011;66626;48.872;9.084;2023-03-30T15:48:28;3.15;;;0.82;;
77513;SDS011;66626;48.872;9.084;2023-03-30T15:51:04;6.80;;;1.45;;
77513;SDS011;66626;48.872;9.084;2023-03-30T15:53:40;5.25;;;1.17;;
77513;SDS011;66626;48.872;9.084;2023-03-30T15:56:11;3.50;;;1.02;;
77513;SDS011;66626;48.872;9.084;2023-03-30T15:58:41;4.55;;;1.30;;
77513;SDS011;66626;48.872;9.084;2023-03-30T16:01:08;5.85;;;1.13;;
77513;SDS011;66626;48.872;9.084;2023-03-30T16:06:04;3.22;;;1.05;;
77513;SDS011;66626;48.872;9.084;2023-03-30T16:08:30;3.80;;;1.10;;
77513;SDS011;66626;48.872;9.084;2023-03-30T16:10:55;5.78;;;1.30;;
77513;SDS011;66626;48.872;9.084;2023-03-30T16:13:22;3.60;;;1.08;;
77513;SDS011;66626;48.872;9.084;2023-03-30T16:15:47;5.47;;;1.00;;
77513;SDS011;66626;48.872;9.084;2023-03-30T16:18:13;5.15;;;1.35;;
77513;SDS011;66626;48.872;9.084;2023-03-30T16:20:38;3.88;;;1.00;;
77513;SDS011;66626;48.872;9.084;2023-03-30T16:23:03;5.63;;;1.55;;
77513;SDS011;66626;48.872;9.084;2023-03-30T16:25:29;3.13;;;1.08;;
77513;SDS011;66626;48.872;9.084;2023-03-30T16:27:54;4.07;;;1.10;;
77513;SDS011;66626;48.872;9.084;2023-03-30T16:32:59;3.00;;;1.00;;
77513;SDS011;66626;48.872;9.084;2023-03-30T16:35:27;4.13;;;1.10;;
77513;SDS011;66626;48.872;9.084;2023-03-30T16:37:52;3.13;;;1.00;;
77513;SDS011;66626;48.872;9.084;2023-03-30T16:43:16;4.72;;;1.20;;
77513;SDS011;66626;48.872;9.084;2023-03-30T16:45:42;4.18;;;1.15;;
77513;SDS011;66626;48.872;9.084;2023-03-30T16:48:09;5.05;;;0.90;;
77513;SDS011;66626;48.872;9.084;2023-03-30T16:50:37;3.78;;;1.00;;
77513;SDS011;66626;48.872;9.084;2023-03-30T16:53:05;4.57;;;1.08;;
77513;SDS011;66626;48.872;9.084;2023-03-30T16:55:32;3.00;;;0.80;;
77513;SDS011;66626;48.872;9.084;2023-03-30T16:57:58;3.80;;;1.00;;
77513;SDS011;66626;48.872;9.084;2023-03-30T17:00:24;4.30;;;1.33;;
77513;SDS011;66626;48.872;9.084;2023-03-30T17:02:51;3.10;;;0.93;;
77513;SDS011;66626;48.872;9.084;2023-03-30T17:05:16;3.95;;;1.10;;
77513;SDS011;66626;48.872;9.084;2023-03-30T17:07:42;1.45;;;0.70;;